Time;durP1;ratioP1;P1;durP2;ratioP2;P2;SDS_P1;SDS_P2;PMS_P1;PMS_P2;Temp;Humidity;BMP_temperature;BMP_pressure;BME280_temperature;BME280_humidity;BME280_pressure;Samples;Min_cycle;Max_cycle;Signal;HPM_P1;HPM_P2
2021/12/02 00:01:20;;;;;;;;;;;;;;;;;;4084935;29;7163;-48
2021/12/02 00:03:43;;;;;;;;;;;;;;;;;;4085003;29;7073;-48
2021/12/02 00:06:07;;;;;;;;;;;;;;;;;;4085020;29;7000;-48
2021/12/02 00:08:29;;;;;;;;;;;;;;;;;;4084884;29;7200;-48
2021/12/02 00:10:50;;;;;;;;;;;;;;;;;;4084399;29;7024;-48
2021/12/02 00:13:12;;;;;;;;;;;;;;;;;;4084790;29;6995;-48
2021/12/02 00:15:39;;;;;;;;;;;;;;;;;;4084810;29;7125;-48
2021/12/02 00:18:29;;;;;;;;;;;;;;;;;;4084703;29;7186;-49
2021/12/02 00:21:05;;;;;;;;;;;;;;;;;;4084654;29;7006;-48
2021/12/02 00:23:34;;;;;;;;;;;;;;;;;;4084539;29;6991;-49
2021/12/02 00:25:55;;;;;;;;;;;;;;;;;;4084186;29;7003;-47
2021/12/02 00:28:17;;;;;;;;;;;;;;;;;;4084450;29;7050;-49
2021/12/02 00:30:38;;;;;;;;;;;;;;;;;;4084353;29;7403;-48
2021/12/02 00:33:00;;;;;;;;;;;;;;;;;;4084387;29;7101;-49
2021/12/02 00:35:21;;;;;;;;;;;;;;;;;;4084081;29;7042;-49
2021/12/02 00:37:42;;;;;;;;;;;;;;;;;;4084474;29;6998;-48
2021/12/02 00:40:05;;;;;;;;;;;;;;;;;;4084371;29;6975;-48
2021/12/02 00:42:27;;;;;;;;;;;;;;;;;;4084408;29;6997;-48
2021/12/02 00:44:48;;;;;;;;;;;;;;;;;;4084540;29;6955;-48
2021/12/02 00:47:09;;;;;;;;;;;;;;;;;;4084219;29;7427;-49
2021/12/02 00:49:31;;;;;;;;;;;;;;;;;;4083976;29;7763;-48
2021/12/02 00:51:53;;;;;;;;;;;;;;;;;;4084219;29;6990;-48
2021/12/02 00:54:14;;;;;;;;;;;;;;;;;;4084289;29;6994;-48
2021/12/02 00:56:37;;;;;;;;;;;;;;;;;;4084162;29;7464;-48
2021/12/02 00:58:59;;;;;;;;;;;;;;;;;;4084135;29;6991;-49
2021/12/02 01:01:20;;;;;;;;;;;;;;;;;;4084120;29;6991;-47
2021/12/02 01:03:42;;;;;;;;;;;;;;;;;;4084175;29;7096;-48
2021/12/02 01:06:04;;;;;;;;;;;;;;;;;;4083914;29;7628;-48
2021/12/02 01:08:25;;;;;;;;;;;;;;;;;;4083990;29;6995;-48
2021/12/02 01:10:46;;;;;;;;;;;;;;;;;;4084011;29;6995;-48
2021/12/02 01:13:09;;;;;;;;;;;;;;;;;;4083664;29;7016;-49
2021/12/02 01:15:31;;;;;;;;;;;;;;;;;;4083970;29;7038;-49
2021/12/02 01:17:52;;;;;;;;;;;;;;;;;;4083928;29;7035;-48
2021/12/02 01:20:13;;;;;;;;;;;;;;;;;;4083773;29;7050;-48
2021/12/02 01:22:36;;;;;;;;;;;;;;;;;;4083867;29;6995;-48
2021/12/02 01:24:57;;;;;;;;;;;;;;;;;;4083792;29;7007;-48
2021/12/02 01:27:19;;;;;;;;;;;;;;;;;;4083798;29;7509;-48
2021/12/02 01:29:42;;;;;;;;;;;;;;;;;;4083836;29;7018;-48
2021/12/02 01:32:06;;;;;;;;;;;;;;;;;;4083617;29;7054;-48
2021/12/02 01:34:28;;;;;;;;;;;;;;;;;;4083866;29;7107;-48
2021/12/02 01:36:49;;;;;;;;;;;;;;;;;;4084055;29;7393;-48
2021/12/02 01:39:11;;;;;;;;;;;;;;;;;;4083792;29;7166;-49
2021/12/02 01:41:37;;;;;;;;;;;;;;;;;;4083769;29;6994;-49
2021/12/02 01:43:58;;;;;;;;;;;;;;;;;;4083337;29;7003;-48
2021/12/02 01:46:23;;;;;;;;;;;;;;;;;;4083888;29;6991;-48
2021/12/02 01:48:48;;;;;;;;;;;;;;;;;;4083833;29;6982;-48
2021/12/02 01:51:11;;;;;;;;;;;;;;;;;;4083364;29;7049;-48
2021/12/02 01:53:32;;;;;;;;;;;;;;;;;;4083863;29;6990;-49
2021/12/02 01:55:54;;;;;;;;;;;;;;;;;;4083537;29;6982;-47
2021/12/02 01:58:16;;;;;;;;;;;;;;;;;;4083080;29;6991;-50
2021/12/02 02:04:06;;;;;;;;;;;;;;;;;;4091522;28;6986;-49
2021/12/02 02:06:28;;;;;;;;;;;;;;;;;;4101513;28;7325;-48
2021/12/02 02:08:50;;;;;;;;;;;;;;;;;;4108878;28;6987;-48
2021/12/02 02:11:11;;;;;;;;;;;;;;;;;;4117731;28;7050;-48
2021/12/02 02:13:32;;;;;;;;;;;;;;;;;;4117807;28;7231;-48
2021/12/02 02:15:54;;;;;;;;;;;;;;;;;;4118150;28;7196;-48
2021/12/02 02:18:20;;;;;;;;;;;;;;;;;;4117825;28;6984;-49
2021/12/02 02:20:46;;;;;;;;;;;;;;;;;;4117617;28;6990;-48
2021/12/02 02:23:10;;;;;;;;;;;;;;;;;;4118004;28;7011;-49
2021/12/02 02:25:32;;;;;;;;;;;;;;;;;;4117825;28;7066;-48
2021/12/02 02:27:53;;;;;;;;;;;;;;;;;;4117597;28;7092;-48
2021/12/02 02:30:14;;;;;;;;;;;;;;;;;;4118146;28;7037;-48
2021/12/02 02:32:37;;;;;;;;;;;;;;;;;;4117930;28;7404;-48
2021/12/02 02:34:58;;;;;;;;;;;;;;;;;;4118031;28;7167;-48
2021/12/02 02:37:21;;;;;;;;;;;;;;;;;;4118099;28;6991;-48
2021/12/02 02:39:43;;;;;;;;;;;;;;;;;;4118126;28;7115;-48
2021/12/02 02:42:06;;;;;;;;;;;;;;;;;;4117744;28;7027;-48
2021/12/02 02:44:32;;;;;;;;;;;;;;;;;;4118008;28;6991;-48
2021/12/02 02:46:53;;;;;;;;;;;;;;;;;;4117961;28;7201;-48
2021/12/02 02:49:14;;;;;;;;;;;;;;;;;;4117737;28;7236;-48
2021/12/02 02:51:36;;;;;;;;;;;;;;;;;;4117465;28;7162;-48
2021/12/02 02:54:02;;;;;;;;;;;;;;;;;;4118618;28;7019;-48
2021/12/02 02:56:26;;;;;;;;;;;;;;;;;;4117847;28;7010;-48
2021/12/02 03:01:41;;;;;;;;;;;;;;;;;;4117625;28;6974;-49
2021/12/02 03:04:09;;;;;;;;;;;;;;;;;;4117888;28;7341;-48
2021/12/02 03:06:36;;;;;;;;;;;;;;;;;;4117420;28;6998;-48
2021/12/02 03:09:05;;;;;;;;;;;;;;;;;;4117620;28;6999;-49
2021/12/02 03:11:27;;;;;;;;;;;;;;;;;;4117409;28;6991;-48
2021/12/02 03:13:51;;;;;;;;;;;;;;;;;;4117310;28;6982;-48
2021/12/02 03:18:52;;;;;;;;;;;;;;;;;;4117519;28;7136;-48
2021/12/02 03:21:19;;;;;;;;;;;;;;;;;;4117306;28;6990;-48
2021/12/02 03:23:47;;;;;;;;;;;;;;;;;;4117467;28;7010;-48
2021/12/02 03:26:10;;;;;;;;;;;;;;;;;;4117448;28;7010;-48
2021/12/02 03:28:32;;;;;;;;;;;;;;;;;;4117167;28;7451;-48
2021/12/02 03:30:54;;;;;;;;;;;;;;;;;;4117147;28;6986;-48
2021/12/02 03:33:15;;;;;;;;;;;;;;;;;;4117230;28;6971;-48
2021/12/02 03:35:37;;;;;;;;;;;;;;;;;;4116999;28;7194;-49
2021/12/02 03:37:58;;;;;;;;;;;;;;;;;;4117165;28;7184;-48
2021/12/02 03:40:19;;;;;;;;;;;;;;;;;;4117259;28;7365;-48
2021/12/02 03:42:45;;;;;;;;;;;;;;;;;;4117065;28;7042;-48
2021/12/02 03:45:09;;;;;;;;;;;;;;;;;;4117168;28;7158;-48
2021/12/02 03:47:30;;;;;;;;;;;;;;;;;;4117142;28;6986;-48
2021/12/02 03:49:51;;;;;;;;;;;;;;;;;;4117024;28;6998;-48
2021/12/02 03:52:13;;;;;;;;;;;;;;;;;;4116746;28;7420;-48
2021/12/02 03:54:34;;;;;;;;;;;;;;;;;;4117055;28;7034;-49
2021/12/02 03:56:56;;;;;;;;;;;;;;;;;;4116915;28;7002;-48
2021/12/02 03:59:19;;;;;;;;;;;;;;;;;;4116512;28;7034;-49
2021/12/02 04:01:40;;;;;;;;;;;;;;;;;;4116839;28;7181;-48
2021/12/02 04:04:01;;;;;;;;;;;;;;;;;;4116838;28;7058;-48
2021/12/02 04:06:23;;;;;;;;;;;;;;;;;;4116558;28;7058;-48
2021/12/02 04:08:47;;;;;;;;;;;;;;;;;;4116782;28;6982;-48
2021/12/02 04:11:17;;;;;;;;;;;;;;;;;;4116786;28;7169;-49
2021/12/02 04:13:43;;;;;;;;;;;;;;;;;;4116455;28;7014;-48
2021/12/02 04:16:14;;;;;;;;;;;;;;;;;;4116695;28;6986;-48
2021/12/02 04:18:35;;;;;;;;;;;;;;;;;;4116563;28;7099;-48
2021/12/02 04:20:56;;;;;;;;;;;;;;;;;;4116751;28;7031;-48
2021/12/02 04:23:18;;;;;;;;;;;;;;;;;;4116060;28;7463;-48
2021/12/02 04:25:39;;;;;;;;;;;;;;;;;;4116394;28;7137;-48
2021/12/02 04:28:01;;;;;;;;;;;;;;;;;;4116496;28;7147;-48
2021/12/02 04:30:23;;;;;;;;;;;;;;;;;;4101692;28;7160;-48
2021/12/02 04:32:45;;;;;;;;;;;;;;;;;;4116104;28;7098;-48
2021/12/02 04:35:07;;;;;;;;;;;;;;;;;;4116279;28;6966;-49
2021/12/02 04:37:29;;;;;;;;;;;;;;;;;;4116300;28;7152;-48
2021/12/02 04:39:51;;;;;;;;;;;;;;;;;;4116319;28;6962;-49
2021/12/02 04:42:12;;;;;;;;;;;;;;;;;;4116262;28;7372;-48
2021/12/02 04:44:33;;;;;;;;;;;;;;;;;;4116090;28;6979;-48
2021/12/02 04:46:55;;;;;;;;;;;;;;;;;;4116311;28;7093;-49
2021/12/02 04:49:17;;;;;;;;;;;;;;;;;;4116288;28;6990;-49
2021/12/02 04:51:39;;;;;;;;;;;;;;;;;;4116167;28;6979;-49
2021/12/02 04:54:00;;;;;;;;;;;;;;;;;;4116228;28;7161;-48
2021/12/02 04:56:22;;;;;;;;;;;;;;;;;;4116248;28;7073;-48
2021/12/02 04:58:43;;;;;;;;;;;;;;;;;;4115958;28;7081;-48
2021/12/02 05:01:04;;;;;;;;;;;;;;;;;;4116045;28;6990;-48
2021/12/02 05:03:26;;;;;;;;;;;;;;;;;;4115835;28;7026;-48
2021/12/02 05:05:49;;;;;;;;;;;;;;;;;;4116061;28;7235;-48
2021/12/02 05:08:10;;;;;;;;;;;;;;;;;;4115840;28;7162;-48
2021/12/02 05:10:32;;;;;;;;;;;;;;;;;;4116245;28;7054;-48
2021/12/02 05:12:53;;;;;;;;;;;;;;;;;;4115795;28;6978;-48
2021/12/02 05:15:14;;;;;;;;;;;;;;;;;;4116153;28;7213;-48
2021/12/02 05:17:36;;;;;;;;;;;;;;;;;;4115846;28;6974;-48
2021/12/02 05:19:57;;;;;;;;;;;;;;;;;;4115882;28;7009;-48
2021/12/02 05:22:20;;;;;;;;;;;;;;;;;;4115880;28;7002;-48
2021/12/02 05:24:41;;;;;;;;;;;;;;;;;;4115803;28;7209;-47
2021/12/02 05:27:02;;;;;;;;;;;;;;;;;;4115758;28;7161;-48
2021/12/02 05:29:23;;;;;;;;;;;;;;;;;;4115776;28;7038;-47
2021/12/02 05:31:45;;;;;;;;;;;;;;;;;;4115651;28;7200;-48
2021/12/02 05:34:06;;;;;;;;;;;;;;;;;;4115704;28;7002;-47
2021/12/02 05:36:28;;;;;;;;;;;;;;;;;;4117782;28;7006;-49
2021/12/02 05:38:51;;;;;;;;;;;;;;;;;;4119093;28;7010;-48
2021/12/02 05:41:13;;;;;;;;;;;;;;;;;;4119044;28;7093;-48
2021/12/02 05:43:34;;;;;;;;;;;;;;;;;;4119050;28;6990;-48
2021/12/02 05:45:56;;;;;;;;;;;;;;;;;;4119124;28;7041;-48
2021/12/02 05:48:17;;;;;;;;;;;;;;;;;;4118939;28;6992;-48
2021/12/02 05:50:38;;;;;;;;;;;;;;;;;;4118734;28;7051;-48
2021/12/02 05:53:00;;;;;;;;;;;;;;;;;;4118902;28;7149;-48
2021/12/02 05:55:22;;;;;;;;;;;;;;;;;;4118770;28;6995;-48
2021/12/02 05:57:44;;;;;;;;;;;;;;;;;;4118866;28;6974;-48
2021/12/02 06:00:05;;;;;;;;;;;;;;;;;;4118762;28;6994;-47
2021/12/02 06:02:35;;;;;;;;;;;;;;;;;;4118885;28;7002;-48
2021/12/02 06:04:56;;;;;;;;;;;;;;;;;;4118544;28;7451;-47
2021/12/02 06:07:18;;;;;;;;;;;;;;;;;;4118455;28;6983;-48
2021/12/02 06:09:40;;;;;;;;;;;;;;;;;;4118534;28;6975;-48
2021/12/02 06:12:03;;;;;;;;;;;;;;;;;;4118350;28;7106;-48
2021/12/02 06:14:24;;;;;;;;;;;;;;;;;;4118519;28;7007;-48
2021/12/02 06:16:45;;;;;;;;;;;;;;;;;;4118474;28;7379;-48
2021/12/02 06:19:06;;;;;;;;;;;;;;;;;;4118565;28;7031;-51
2021/12/02 06:21:28;;;;;;;;;;;;;;;;;;4118385;28;7007;-48
2021/12/02 06:23:49;;;;;;;;;;;;;;;;;;4118224;28;7432;-47
2021/12/02 06:26:11;;;;;;;;;;;;;;;;;;4118346;28;7165;-48
2021/12/02 06:28:33;;;;;;;;;;;;;;;;;;4118357;28;6979;-47
2021/12/02 06:30:55;;;;;;;;;;;;;;;;;;4118295;28;7019;-49
2021/12/02 06:33:16;;;;;;;;;;;;;;;;;;4118234;28;6970;-48
2021/12/02 06:35:37;;;;;;;;;;;;;;;;;;4118108;28;6986;-48
2021/12/02 06:37:59;;;;;;;;;;;;;;;;;;4118411;28;7070;-49
2021/12/02 06:40:20;;;;;;;;;;;;;;;;;;4118225;28;6990;-48
2021/12/02 06:42:42;;;;;;;;;;;;;;;;;;4118105;28;6995;-48
2021/12/02 06:45:05;;;;;;;;;;;;;;;;;;4107984;28;7006;-48
2021/12/02 06:47:30;;;;;;;;;;;;;;;;;;4087205;28;6974;-48
2021/12/02 06:49:52;;;;;;;;;;;;;;;;;;4090473;28;7086;-48
2021/12/02 06:52:15;;;;;;;;;;;;;;;;;;4085204;29;7451;-48
2021/12/02 06:54:36;;;;;;;;;;;;;;;;;;4087699;28;7229;-49
2021/12/02 06:56:58;;;;;;;;;;;;;;;;;;4090845;28;7011;-48
2021/12/02 06:59:19;;;;;;;;;;;;;;;;;;4091065;28;7473;-48
2021/12/02 07:01:43;;;;;;;;;;;;;;;;;;4096736;28;7087;-48
2021/12/02 07:04:04;;;;;;;;;;;;;;;;;;4090455;28;7077;-48
2021/12/02 07:06:25;;;;;;;;;;;;;;;;;;4092736;28;6979;-48
2021/12/02 07:08:47;;;;;;;;;;;;;;;;;;4086602;28;6975;-48
2021/12/02 07:11:10;;;;;;;;;;;;;;;;;;4096569;28;8069;-48
2021/12/02 07:13:31;;;;;;;;;;;;;;;;;;4099254;28;6986;-49
2021/12/02 07:15:54;;;;;;;;;;;;;;;;;;4081478;29;7245;-48
2021/12/02 07:18:16;;;;;;;;;;;;;;;;;;4094829;28;7079;-48
2021/12/02 07:20:38;;;;;;;;;;;;;;;;;;4100169;28;7047;-48
2021/12/02 07:22:59;;;;;;;;;;;;;;;;;;4092445;28;7070;-49
2021/12/02 07:25:20;;;;;;;;;;;;;;;;;;4092890;28;7219;-48
2021/12/02 07:27:42;;;;;;;;;;;;;;;;;;4101147;28;6991;-48
2021/12/02 07:30:04;;;;;;;;;;;;;;;;;;4101365;28;6994;-48
2021/12/02 07:32:25;;;;;;;;;;;;;;;;;;4101174;28;7138;-48
2021/12/02 07:34:48;;;;;;;;;;;;;;;;;;4100142;28;7051;-48
2021/12/02 07:37:10;;;;;;;;;;;;;;;;;;4092641;28;7062;-48
2021/12/02 07:39:32;;;;;;;;;;;;;;;;;;4098947;28;7415;-49
2021/12/02 07:41:54;;;;;;;;;;;;;;;;;;4085352;29;6986;-48
2021/12/02 07:44:15;;;;;;;;;;;;;;;;;;4079328;29;6987;-50
2021/12/02 07:46:36;;;;;;;;;;;;;;;;;;4085261;28;7008;-49
2021/12/02 07:48:58;;;;;;;;;;;;;;;;;;4085459;29;7333;-49
2021/12/02 07:51:21;;;;;;;;;;;;;;;;;;4084696;29;7003;-48
2021/12/02 07:53:42;;;;;;;;;;;;;;;;;;4085287;29;6987;-49
2021/12/02 07:56:04;;;;;;;;;;;;;;;;;;4084927;29;6990;-48
2021/12/02 07:58:27;;;;;;;;;;;;;;;;;;4084259;29;7007;-49
2021/12/02 08:00:48;;;;;;;;;;;;;;;;;;4085145;29;7132;-49
2021/12/02 08:03:10;;;;;;;;;;;;;;;;;;4085096;29;7027;-48
2021/12/02 08:05:32;;;;;;;;;;;;;;;;;;4084953;29;7034;-50
2021/12/02 08:07:55;;;;;;;;;;;;;;;;;;4084989;29;6979;-49
2021/12/02 08:10:17;;;;;;;;;;;;;;;;;;4084791;29;6999;-49
2021/12/02 08:12:38;;;;;;;;;;;;;;;;;;4083824;29;7031;-49
2021/12/02 08:14:59;;;;;;;;;;;;;;;;;;4083974;29;7392;-48
2021/12/02 08:17:21;;;;;;;;;;;;;;;;;;4085003;29;6970;-49
2021/12/02 08:19:43;;;;;;;;;;;;;;;;;;4084236;29;7346;-48
2021/12/02 08:22:05;;;;;;;;;;;;;;;;;;4083987;29;7083;-50
2021/12/02 08:24:28;;;;;;;;;;;;;;;;;;4084427;29;7157;-52
2021/12/02 08:26:50;;;;;;;;;;;;;;;;;;4084700;29;7170;-52
2021/12/02 08:29:11;;;;;;;;;;;;;;;;;;4084484;29;7082;-52
2021/12/02 08:31:33;;;;;;;;;;;;;;;;;;4084370;29;6982;-52
2021/12/02 08:33:55;;;;;;;;;;;;;;;;;;4084508;29;7387;-52
2021/12/02 08:36:16;;;;;;;;;;;;;;;;;;4084042;29;7427;-51
2021/12/02 08:38:37;;;;;;;;;;;;;;;;;;4084452;29;7360;-51
2021/12/02 08:41:00;;;;;;;;;;;;;;;;;;4084525;29;7006;-51
2021/12/02 08:43:22;;;;;;;;;;;;;;;;;;4084270;29;6999;-52
2021/12/02 08:45:43;;;;;;;;;;;;;;;;;;4084357;29;6979;-51
2021/12/02 08:48:05;;;;;;;;;;;;;;;;;;4084280;29;7175;-51
2021/12/02 08:50:27;;;;;;;;;;;;;;;;;;4084150;29;7127;-52
2021/12/02 08:52:49;;;;;;;;;;;;;;;;;;4084257;29;6999;-51
2021/12/02 08:55:10;;;;;;;;;;;;;;;;;;4084235;29;7118;-51
2021/12/02 08:57:34;;;;;;;;;;;;;;;;;;4083758;29;7015;-52
2021/12/02 08:59:55;;;;;;;;;;;;;;;;;;4083637;29;7007;-50
2021/12/02 09:02:16;;;;;;;;;;;;;;;;;;4084234;29;6970;-51
2021/12/02 09:04:38;;;;;;;;;;;;;;;;;;4083789;29;7138;-51
2021/12/02 09:06:59;;;;;;;;;;;;;;;;;;4083903;29;7178;-51
2021/12/02 09:09:25;;;;;;;;;;;;;;;;;;4083981;29;7123;-52
2021/12/02 09:11:46;;;;;;;;;;;;;;;;;;4084215;29;7004;-51
2021/12/02 09:14:09;;;;;;;;;;;;;;;;;;4083825;29;7135;-53
2021/12/02 09:16:31;;;;;;;;;;;;;;;;;;4082530;29;7460;-52
2021/12/02 09:18:54;;;;;;;;;;;;;;;;;;4083830;29;6991;-51
2021/12/02 09:21:15;;;;;;;;;;;;;;;;;;4083723;29;6979;-51
2021/12/02 09:23:37;;;;;;;;;;;;;;;;;;4083907;29;7003;-51
2021/12/02 09:25:58;;;;;;;;;;;;;;;;;;4083939;29;7463;-51
2021/12/02 09:28:20;;;;;;;;;;;;;;;;;;4083440;29;7003;-51
2021/12/02 09:30:42;;;;;;;;;;;;;;;;;;4084338;29;6998;-51
2021/12/02 09:33:04;;;;;;;;;;;;;;;;;;4091354;29;6995;-50
2021/12/02 09:35:26;;;;;;;;;;;;;;;;;;4090036;29;6987;-51
2021/12/02 09:37:47;;;;;;;;;;;;;;;;;;4086509;29;7075;-50
2021/12/02 09:40:09;;;;;;;;;;;;;;;;;;4086543;29;7185;-51
2021/12/02 09:42:31;;;;;;;;;;;;;;;;;;4095922;29;7006;-51
2021/12/02 09:44:58;;;;;;;;;;;;;;;;;;4087887;29;7003;-50
2021/12/02 09:47:21;;;;;;;;;;;;;;;;;;4083347;29;7031;-50
2021/12/02 09:49:43;;;;;;;;;;;;;;;;;;4084821;29;7011;-52
2021/12/02 09:52:08;;;;;;;;;;;;;;;;;;4094146;29;7053;-50
2021/12/02 09:54:32;;;;;;;;;;;;;;;;;;4088658;29;6998;-52
2021/12/02 09:56:56;;;;;;;;;;;;;;;;;;4088148;29;7003;-53
2021/12/02 09:59:26;;;;;;;;;;;;;;;;;;4083492;29;7046;-53
2021/12/02 10:01:50;;;;;;;;;;;;;;;;;;4088786;29;6987;-51
2021/12/02 10:04:13;;;;;;;;;;;;;;;;;;4091907;29;7166;-51
2021/12/02 10:06:35;;;;;;;;;;;;;;;;;;4085697;29;7180;-51
2021/12/02 10:08:59;;;;;;;;;;;;;;;;;;4083487;29;7575;-50
2021/12/02 10:11:30;;;;;;;;;;;;;;;;;;4083636;29;7030;-51
2021/12/02 10:14:00;;;;;;;;;;;;;;;;;;4083601;29;7126;-50
2021/12/02 10:16:25;;;;;;;;;;;;;;;;;;4083534;29;7038;-51
2021/12/02 10:18:55;;;;;;;;;;;;;;;;;;4083768;29;6991;-51
2021/12/02 10:21:22;;;;;;;;;;;;;;;;;;4083275;29;7011;-51
2021/12/02 10:23:47;;;;;;;;;;;;;;;;;;4097053;28;7062;-51
2021/12/02 10:26:08;;;;;;;;;;;;;;;;;;4102447;28;6994;-53
2021/12/02 10:28:30;;;;;;;;;;;;;;;;;;4102435;28;7251;-51
2021/12/02 10:30:53;;;;;;;;;;;;;;;;;;4102206;28;7395;-50
2021/12/02 10:33:14;;;;;;;;;;;;;;;;;;4116181;28;6994;-51
2021/12/02 10:35:42;;;;;;;;;;;;;;;;;;4118341;28;7349;-50
2021/12/02 10:38:05;;;;;;;;;;;;;;;;;;4118201;28;7426;-51
2021/12/02 10:40:26;;;;;;;;;;;;;;;;;;4118236;28;7133;-51
2021/12/02 10:42:48;;;;;;;;;;;;;;;;;;4118087;28;7149;-51
2021/12/02 10:45:18;;;;;;;;;;;;;;;;;;4118013;28;7149;-50
2021/12/02 10:47:40;;;;;;;;;;;;;;;;;;4117953;28;6975;-50
2021/12/02 10:50:02;;;;;;;;;;;;;;;;;;4117908;28;7142;-51
2021/12/02 10:52:24;;;;;;;;;;;;;;;;;;4103553;28;7010;-52
2021/12/02 10:54:48;;;;;;;;;;;;;;;;;;4116323;28;7015;-50
2021/12/02 10:57:10;;;;;;;;;;;;;;;;;;4117849;28;7041;-51
2021/12/02 10:59:33;;;;;;;;;;;;;;;;;;4117866;28;6999;-51
2021/12/02 11:01:54;;;;;;;;;;;;;;;;;;4117912;28;7018;-51
2021/12/02 11:04:15;;;;;;;;;;;;;;;;;;4117881;28;7183;-51
2021/12/02 11:06:40;;;;;;;;;;;;;;;;;;4117920;28;6986;-51
2021/12/02 11:09:02;;;;;;;;;;;;;;;;;;4117872;28;7019;-50
2021/12/02 11:11:25;;;;;;;;;;;;;;;;;;4115249;28;6991;-53
2021/12/02 11:13:49;;;;;;;;;;;;;;;;;;4084239;28;7057;-52
2021/12/02 11:16:10;;;;;;;;;;;;;;;;;;4085676;29;7003;-53
2021/12/02 11:18:34;;;;;;;;;;;;;;;;;;4095228;28;7009;-51
2021/12/02 11:20:59;;;;;;;;;;;;;;;;;;4117455;28;6967;-50
2021/12/02 11:23:23;;;;;;;;;;;;;;;;;;4117416;28;6987;-51
2021/12/02 11:25:54;;;;;;;;;;;;;;;;;;4117336;28;7145;-51
2021/12/02 11:28:17;;;;;;;;;;;;;;;;;;4085204;29;7019;-52
2021/12/02 11:30:39;;;;;;;;;;;;;;;;;;4092654;28;7031;-51
2021/12/02 11:33:00;;;;;;;;;;;;;;;;;;4100344;28;7023;-51
2021/12/02 11:35:27;;;;;;;;;;;;;;;;;;4100838;28;7127;-51
2021/12/02 11:37:50;;;;;;;;;;;;;;;;;;4101231;28;7012;-51
2021/12/02 11:40:12;;;;;;;;;;;;;;;;;;4100962;28;7003;-51
2021/12/02 11:42:34;;;;;;;;;;;;;;;;;;4100975;28;6999;-51
2021/12/02 11:44:57;;;;;;;;;;;;;;;;;;4101093;28;6971;-51
2021/12/02 11:47:18;;;;;;;;;;;;;;;;;;4101221;28;7181;-52
2021/12/02 11:49:41;;;;;;;;;;;;;;;;;;4101163;28;7447;-51
2021/12/02 11:52:02;;;;;;;;;;;;;;;;;;4101174;28;7133;-52
2021/12/02 11:54:23;;;;;;;;;;;;;;;;;;4101134;28;7046;-51
2021/12/02 11:56:45;;;;;;;;;;;;;;;;;;4098756;28;7034;-51
2021/12/02 11:59:07;;;;;;;;;;;;;;;;;;4100722;28;7198;-50
2021/12/02 12:01:30;;;;;;;;;;;;;;;;;;4100758;28;7042;-51
2021/12/02 12:03:53;;;;;;;;;;;;;;;;;;4101061;28;7193;-51
2021/12/02 12:06:14;;;;;;;;;;;;;;;;;;4100300;28;7002;-50
2021/12/02 12:08:36;;;;;;;;;;;;;;;;;;4111125;28;7033;-50
2021/12/02 12:10:57;;;;;;;;;;;;;;;;;;4116042;28;7065;-51
2021/12/02 12:13:21;;;;;;;;;;;;;;;;;;4077027;29;7466;-51
2021/12/02 12:15:44;;;;;;;;;;;;;;;;;;4084792;29;7166;-50
2021/12/02 12:18:07;;;;;;;;;;;;;;;;;;4084735;29;6991;-50
2021/12/02 12:20:50;;;;;;;;;;;;;;;;;;4084390;29;7037;-50
2021/12/02 12:23:26;;;;;;;;;;;;;;;;;;4087024;28;7003;-50
2021/12/02 12:25:47;;;;;;;;;;;;;;;;;;4100429;28;7231;-52
2021/12/02 12:28:09;;;;;;;;;;;;;;;;;;4084895;28;7149;-49
2021/12/02 12:30:33;;;;;;;;;;;;;;;;;;4084647;29;7003;-48
2021/12/02 12:33:01;;;;;;;;;;;;;;;;;;4088469;28;7202;-48
2021/12/02 12:35:38;;;;;;;;;;;;;;;;;;4087088;28;6990;-50
2021/12/02 12:38:05;;;;;;;;;;;;;;;;;;4096592;28;7220;-49
2021/12/02 12:40:27;;;;;;;;;;;;;;;;;;4085746;28;6991;-49
2021/12/02 12:42:49;;;;;;;;;;;;;;;;;;4088638;28;6987;-48
2021/12/02 12:45:14;;;;;;;;;;;;;;;;;;4085343;28;7027;-48
2021/12/02 12:47:43;;;;;;;;;;;;;;;;;;4100313;28;7518;-49
2021/12/02 12:50:20;;;;;;;;;;;;;;;;;;4094225;28;7880;-48
2021/12/02 12:52:43;;;;;;;;;;;;;;;;;;4086380;28;7023;-47
2021/12/02 12:55:14;;;;;;;;;;;;;;;;;;4084155;29;7011;-50
2021/12/02 12:57:35;;;;;;;;;;;;;;;;;;4094820;28;6979;-49
2021/12/02 12:59:57;;;;;;;;;;;;;;;;;;4099998;28;7158;-48
2021/12/02 13:02:19;;;;;;;;;;;;;;;;;;4099547;28;7020;-48
2021/12/02 13:04:48;;;;;;;;;;;;;;;;;;4087968;28;7524;-48
2021/12/02 13:07:10;;;;;;;;;;;;;;;;;;4090898;28;6991;-49
2021/12/02 13:09:40;;;;;;;;;;;;;;;;;;4099935;28;7077;-50
2021/12/02 13:12:03;;;;;;;;;;;;;;;;;;4099234;28;7515;-48
2021/12/02 13:14:25;;;;;;;;;;;;;;;;;;4100053;28;6991;-50
2021/12/02 13:16:46;;;;;;;;;;;;;;;;;;4099813;28;6986;-48
2021/12/02 13:19:11;;;;;;;;;;;;;;;;;;4099565;28;7057;-48
2021/12/02 13:21:33;;;;;;;;;;;;;;;;;;4099669;28;7177;-48
2021/12/02 13:23:55;;;;;;;;;;;;;;;;;;4099758;28;7078;-51
2021/12/02 13:26:20;;;;;;;;;;;;;;;;;;4099612;28;6998;-50
2021/12/02 13:28:42;;;;;;;;;;;;;;;;;;4099718;28;6974;-48
2021/12/02 13:31:04;;;;;;;;;;;;;;;;;;4099870;28;7031;-49
2021/12/02 13:33:37;;;;;;;;;;;;;;;;;;4082778;29;7030;-49
2021/12/02 13:35:59;;;;;;;;;;;;;;;;;;4083832;29;7423;-49
2021/12/02 13:38:20;;;;;;;;;;;;;;;;;;4083977;29;7492;-49
2021/12/02 13:40:41;;;;;;;;;;;;;;;;;;4083453;29;7557;-48
2021/12/02 13:43:04;;;;;;;;;;;;;;;;;;4083589;29;7031;-48
2021/12/02 13:45:26;;;;;;;;;;;;;;;;;;4083614;29;7134;-50
2021/12/02 13:47:47;;;;;;;;;;;;;;;;;;4083611;29;7162;-49
2021/12/02 13:50:15;;;;;;;;;;;;;;;;;;4083629;29;7000;-50
2021/12/02 13:52:40;;;;;;;;;;;;;;;;;;4083625;29;7181;-48
2021/12/02 13:55:03;;;;;;;;;;;;;;;;;;4081376;29;7063;-49
2021/12/02 13:57:31;;;;;;;;;;;;;;;;;;4079908;29;6975;-49
2021/12/02 13:59:54;;;;;;;;;;;;;;;;;;4086615;29;7239;-48
2021/12/02 14:02:18;;;;;;;;;;;;;;;;;;4086653;29;7098;-48
2021/12/02 14:04:45;;;;;;;;;;;;;;;;;;4086730;29;7011;-49
2021/12/02 14:07:10;;;;;;;;;;;;;;;;;;4086765;29;6994;-49
2021/12/02 14:09:32;;;;;;;;;;;;;;;;;;4086606;29;7119;-48
2021/12/02 14:12:01;;;;;;;;;;;;;;;;;;4084144;29;6991;-48
2021/12/02 14:14:22;;;;;;;;;;;;;;;;;;4070859;29;7115;-50
2021/12/02 14:16:45;;;;;;;;;;;;;;;;;;4073478;29;8288;-49
2021/12/02 14:19:10;;;;;;;;;;;;;;;;;;4082781;29;7173;-50
2021/12/02 14:21:31;;;;;;;;;;;;;;;;;;4070922;29;7037;-50
2021/12/02 14:23:55;;;;;;;;;;;;;;;;;;4070326;29;7031;-48
2021/12/02 14:26:17;;;;;;;;;;;;;;;;;;4070386;29;6987;-48
2021/12/02 14:28:38;;;;;;;;;;;;;;;;;;4070804;29;6990;-49
2021/12/02 14:31:00;;;;;;;;;;;;;;;;;;4070720;29;7003;-50
2021/12/02 14:33:25;;;;;;;;;;;;;;;;;;4085064;29;6983;-49
2021/12/02 14:35:49;;;;;;;;;;;;;;;;;;4086279;29;7054;-51
2021/12/02 14:38:21;;;;;;;;;;;;;;;;;;4086273;29;6990;-49
2021/12/02 14:40:45;;;;;;;;;;;;;;;;;;4085560;29;6991;-47
2021/12/02 14:43:16;;;;;;;;;;;;;;;;;;4100347;28;7158;-48
2021/12/02 14:45:37;;;;;;;;;;;;;;;;;;4097112;28;7022;-48
2021/12/02 14:47:58;;;;;;;;;;;;;;;;;;4086145;29;6987;-49
2021/12/02 14:50:22;;;;;;;;;;;;;;;;;;4071693;28;7175;-48
2021/12/02 14:52:48;;;;;;;;;;;;;;;;;;4085574;29;6987;-48
2021/12/02 14:55:12;;;;;;;;;;;;;;;;;;4092805;28;7079;-48
2021/12/02 14:57:34;;;;;;;;;;;;;;;;;;4101771;28;6995;-47
2021/12/02 14:59:58;;;;;;;;;;;;;;;;;;4101838;28;7273;-48
2021/12/02 15:02:20;;;;;;;;;;;;;;;;;;4101306;28;7007;-47
2021/12/02 15:04:49;;;;;;;;;;;;;;;;;;4101698;28;7384;-49
2021/12/02 15:07:13;;;;;;;;;;;;;;;;;;4108942;28;7145;-48
2021/12/02 15:09:35;;;;;;;;;;;;;;;;;;4117619;28;7501;-47
2021/12/02 15:11:56;;;;;;;;;;;;;;;;;;4111496;28;7007;-50
2021/12/02 15:14:31;;;;;;;;;;;;;;;;;;4101356;28;6991;-49
2021/12/02 15:16:53;;;;;;;;;;;;;;;;;;4101676;28;7051;-48
2021/12/02 15:19:19;;;;;;;;;;;;;;;;;;4101620;28;7002;-48
2021/12/02 15:21:40;;;;;;;;;;;;;;;;;;4101230;28;6991;-48
2021/12/02 15:24:03;;;;;;;;;;;;;;;;;;4101489;28;6986;-49
2021/12/02 15:26:24;;;;;;;;;;;;;;;;;;4100653;28;7010;-48
2021/12/02 15:28:47;;;;;;;;;;;;;;;;;;4101360;28;7110;-48
2021/12/02 15:31:09;;;;;;;;;;;;;;;;;;4101433;28;6999;-49
2021/12/02 15:33:31;;;;;;;;;;;;;;;;;;4085111;29;7015;-49
2021/12/02 15:35:52;;;;;;;;;;;;;;;;;;4084545;29;7015;-48
2021/12/02 15:38:14;;;;;;;;;;;;;;;;;;4085309;29;7400;-49
2021/12/02 15:40:36;;;;;;;;;;;;;;;;;;4085250;29;7046;-48
2021/12/02 15:43:00;;;;;;;;;;;;;;;;;;4085023;29;7034;-53
2021/12/02 15:45:21;;;;;;;;;;;;;;;;;;4085233;29;6982;-48
2021/12/02 15:47:43;;;;;;;;;;;;;;;;;;4085040;29;6986;-49
2021/12/02 15:50:10;;;;;;;;;;;;;;;;;;4085105;29;7168;-48
2021/12/02 15:52:33;;;;;;;;;;;;;;;;;;4070401;29;6990;-48
2021/12/02 15:54:54;;;;;;;;;;;;;;;;;;4085064;29;6983;-48
2021/12/02 15:57:17;;;;;;;;;;;;;;;;;;4084818;29;7042;-49
2021/12/02 15:59:39;;;;;;;;;;;;;;;;;;4085226;29;7151;-48
2021/12/02 16:02:10;;;;;;;;;;;;;;;;;;4084509;29;7109;-49
2021/12/02 16:04:40;;;;;;;;;;;;;;;;;;4085140;29;7214;-49
2021/12/02 16:07:04;;;;;;;;;;;;;;;;;;4090667;28;7017;-49
2021/12/02 16:09:41;;;;;;;;;;;;;;;;;;4100784;28;7022;-51
2021/12/02 16:12:15;;;;;;;;;;;;;;;;;;4094272;28;6991;-50
2021/12/02 16:14:38;;;;;;;;;;;;;;;;;;4084916;29;7464;-48
2021/12/02 16:17:00;;;;;;;;;;;;;;;;;;4084813;29;7042;-51
2021/12/02 16:19:22;;;;;;;;;;;;;;;;;;4083888;29;7543;-50
2021/12/02 16:21:43;;;;;;;;;;;;;;;;;;4084599;29;7027;-48
2021/12/02 16:24:05;;;;;;;;;;;;;;;;;;4084710;29;7007;-51
2021/12/02 16:26:28;;;;;;;;;;;;;;;;;;4076898;29;7686;-49
2021/12/02 16:28:49;;;;;;;;;;;;;;;;;;4084615;29;7976;-49
2021/12/02 16:31:12;;;;;;;;;;;;;;;;;;4084580;29;7284;-49
2021/12/02 16:33:34;;;;;;;;;;;;;;;;;;4084658;29;7046;-48
2021/12/02 16:35:55;;;;;;;;;;;;;;;;;;4084656;29;6990;-48
2021/12/02 16:38:17;;;;;;;;;;;;;;;;;;4084615;29;7019;-49
2021/12/02 16:40:38;;;;;;;;;;;;;;;;;;4084394;29;7058;-49
2021/12/02 16:43:00;;;;;;;;;;;;;;;;;;4084306;29;6967;-48